Besiktas Bosphorus — TCOG3 — position and weather

sailwx.info

Track history (hours):
 
Tides and Currents Weather Stations Pressure Air Temp Water Temp Dewpoint Dewpoint Depression Visibility Wind Speed Wind Dir Waves Ship Positions

Besiktas Bosphorus

Last reported at 2015-Jul-31 08:13 UTC. Time now 2015-Aug-03 15:08 UTC.
Position N 44°09' E 036°37'.

Length 274 m; draft 7.6 m.

Type: Ship (hazmat cat A). MMSI: 271000817.

Date/timePositionNaut miles runAvg speedWind from/ knotsBaromVisibWave heightAir tempDewpointWater temp
2015-Jul-31 08:13N 44°09' E 036°37'61 2.1
2015-Jul-30 03:33N 44°35' E 037°53'0 0.0
2015-Jul-30 02:31N 44°35' E 037°53'0 0.0
2015-Jul-30 01:33N 44°35' E 037°53'0 0.1
2015-Jul-30 00:33N 44°35' E 037°53'1 0.5
2015-Jul-29 23:29N 44°35' E 037°53'8 5.5
2015-Jul-29 22:03N 44°37' E 037°42'0 0.2
2015-Jul-29 21:07N 44°37' E 037°43'0 0.2
2015-Jul-29 20:08N 44°37' E 037°43'1 1.3
2015-Jul-29 19:33N 44°36' E 037°42'4 4.0
2015-Jul-29 18:33N 44°36' E 037°36'1 1.2
2015-Jul-29 17:22N 44°38' E 037°37'0 0.0
2015-Jul-29 16:31N 44°38' E 037°37'0 0.0
2015-Jul-29 15:31N 44°38' E 037°37'0 0.0
2015-Jul-29 00:14N 44°38' E 037°37'0 0.0
2015-Jul-28 23:32N 44°38' E 037°37'3 2.9
2015-Jul-28 22:34N 44°37' E 037°40'2 1.9
2015-Jul-28 21:34N 44°36' E 037°42'2 2.3
2015-Jul-28 20:34N 44°34' E 037°40'1110.6
2015-Jul-28 19:33N 44°29' E 037°27'1916.0
2015-Jul-28 18:21N 44°18' E 037°05'1315.7
2015-Jul-28 17:33N 44°11' E 036°51'1715.9
2015-Jul-28 16:30N 44°03' E 036°30'1515.7
2015-Jul-28 15:33N 43°57' E 036°11'1515.3
2015-Jul-28 14:33N 43°51' E 035°52'1616.2
2015-Jul-28 13:33N 43°44' E 035°31'1616.2
2015-Jul-28 12:33N 43°38' E 035°11'1616.0
2015-Jul-28 11:33N 43°31' E 034°51'1615.8
2015-Jul-28 10:34N 43°25' E 034°30'1615.8
2015-Jul-28 09:33N 43°19' E 034°11'6315.2
2015-Jul-28 05:24N 42°53' E 032°52'  
2015-Jul-25 22:33N 37°43' E 024°32'1714.7
2015-Jul-25 21:23N 37°29' E 024°21'1316.1
2015-Jul-25 20:33N 37°16' E 024°14'1515.4
2015-Jul-25 19:33N 37°02' E 024°06'1615.8
2015-Jul-25 18:34N 36°48' E 023°59'1515.2
2015-Jul-25 17:34N 36°36' E 023°46'1615.8
2015-Jul-25 16:33N 36°29' E 023°28'  
Track history (hours):
 
Tides and Currents Weather Stations Pressure Air Temp Water Temp Dewpoint Dewpoint Depression Visibility Wind Speed Wind Dir Waves Ship Positions

Besiktas Bosphorus

Last reported at 2015-Jul-31 08:13 UTC. Time now 2015-Aug-03 15:08 UTC.
Position N 44°09' E 036°37'.

Length 274 m; draft 7.6 m.

Type: Ship (hazmat cat A). MMSI: 271000817.

Date/timePositionNaut miles runAvg speedWind from/ knotsBaromVisibWave heightAir tempDewpointWater temp
2015-Jul-31 08:13N 44°09' E 036°37'61 2.1
2015-Jul-30 03:33N 44°35' E 037°53'0 0.0
2015-Jul-30 02:31N 44°35' E 037°53'0 0.0
2015-Jul-30 01:33N 44°35' E 037°53'0 0.1
2015-Jul-30 00:33N 44°35' E 037°53'1 0.5
2015-Jul-29 23:29N 44°35' E 037°53'8 5.5
2015-Jul-29 22:03N 44°37' E 037°42'0 0.2
2015-Jul-29 21:07N 44°37' E 037°43'0 0.2
2015-Jul-29 20:08N 44°37' E 037°43'1 1.3
2015-Jul-29 19:33N 44°36' E 037°42'4 4.0
2015-Jul-29 18:33N 44°36' E 037°36'1 1.2
2015-Jul-29 17:22N 44°38' E 037°37'0 0.0
2015-Jul-29 16:31N 44°38' E 037°37'0 0.0
2015-Jul-29 15:31N 44°38' E 037°37'0 0.0
2015-Jul-29 00:14N 44°38' E 037°37'0 0.0
2015-Jul-28 23:32N 44°38' E 037°37'3 2.9
2015-Jul-28 22:34N 44°37' E 037°40'2 1.9
2015-Jul-28 21:34N 44°36' E 037°42'2 2.3
2015-Jul-28 20:34N 44°34' E 037°40'1110.6
2015-Jul-28 19:33N 44°29' E 037°27'1916.0
2015-Jul-28 18:21N 44°18' E 037°05'1315.7
2015-Jul-28 17:33N 44°11' E 036°51'1715.9
2015-Jul-28 16:30N 44°03' E 036°30'1515.7
2015-Jul-28 15:33N 43°57' E 036°11'1515.3
2015-Jul-28 14:33N 43°51' E 035°52'1616.2
2015-Jul-28 13:33N 43°44' E 035°31'1616.2
2015-Jul-28 12:33N 43°38' E 035°11'1616.0
2015-Jul-28 11:33N 43°31' E 034°51'1615.8
2015-Jul-28 10:34N 43°25' E 034°30'1615.8
2015-Jul-28 09:33N 43°19' E 034°11'6315.2
2015-Jul-28 05:24N 42°53' E 032°52'  
2015-Jul-25 22:33N 37°43' E 024°32'1714.7
2015-Jul-25 21:23N 37°29' E 024°21'1316.1
2015-Jul-25 20:33N 37°16' E 024°14'1515.4
2015-Jul-25 19:33N 37°02' E 024°06'1615.8
2015-Jul-25 18:34N 36°48' E 023°59'1515.2
2015-Jul-25 17:34N 36°36' E 023°46'1615.8
2015-Jul-25 16:33N 36°29' E 023°28'  

Dump ship's entire track history